createdAt,value
2022-12-29T00:00:06.529Z,93657.75
2022-12-29T00:02:33.322Z,93655.19
2022-12-29T00:05:00.113Z,93646.38
2022-12-29T00:07:26.895Z,93642.56
2022-12-29T00:09:53.603Z,93639.50
2022-12-29T00:12:20.258Z,93635.56
2022-12-29T00:15:05.167Z,93631.63
2022-12-29T00:17:31.777Z,93632.81
2022-12-29T00:20:16.678Z,93631.97
2022-12-29T00:23:03.373Z,93626.13
2022-12-29T00:25:48.327Z,93618.44
2022-12-29T00:28:33.313Z,93614.25
2022-12-29T00:31:19.521Z,93618.38
2022-12-29T00:34:04.560Z,93613.44
2022-12-29T00:36:31.186Z,93608.69
2022-12-29T00:39:20.401Z,93616.50
2022-12-29T00:42:07.562Z,93606.78
2022-12-29T00:44:34.514Z,93603.28
2022-12-29T00:47:04.179Z,93601.44
2022-12-29T00:49:31.627Z,93603.09
2022-12-29T00:52:07.392Z,93595.09
2022-12-29T00:54:36.129Z,93594.03
2022-12-29T00:57:03.843Z,93586.31
2022-12-29T00:59:30.590Z,93596.44
2022-12-29T01:01:58.310Z,93588.31
2022-12-29T01:04:26.873Z,93606.59
2022-12-29T01:06:53.941Z,93591.44
2022-12-29T01:09:39.919Z,93577.09
2022-12-29T01:12:08.093Z,93581.75
2022-12-29T01:14:35.013Z,93586.41
2022-12-29T01:17:01.724Z,93572.41
2022-12-29T01:19:28.616Z,93577.47
2022-12-29T01:21:55.296Z,93568.50
2022-12-29T01:24:22.219Z,93570.44
2022-12-29T01:26:49.602Z,93565.75
2022-12-29T01:29:16.452Z,93561.47
2022-12-29T01:31:44.001Z,93570.00
2022-12-29T01:34:10.773Z,93562.97
2022-12-29T01:36:37.391Z,93568.78
2022-12-29T01:39:04.205Z,93564.16
2022-12-29T01:41:31.212Z,93575.78
2022-12-29T01:44:01.978Z,93568.00
2022-12-29T01:46:33.613Z,93572.63
2022-12-29T01:49:14.782Z,93578.50
2022-12-29T01:52:05.524Z,93576.53
2022-12-29T01:54:44.667Z,93579.59
2022-12-29T01:57:15.151Z,93583.50
2022-12-29T01:59:49.326Z,93585.84
2022-12-29T02:02:16.599Z,93573.38
2022-12-29T02:04:45.321Z,93578.75
2022-12-29T02:07:19.680Z,93583.81
2022-12-29T02:09:50.835Z,93575.28
2022-12-29T02:12:22.337Z,93576.03
2022-12-29T02:14:51.644Z,93582.28
2022-12-29T02:17:35.183Z,93578.38
2022-12-29T02:20:28.592Z,93564.75
2022-12-29T02:23:23.153Z,93567.09
2022-12-29T02:26:11.283Z,93576.41
2022-12-29T02:29:16.129Z,93565.44
2022-12-29T02:31:56.531Z,93569.44
2022-12-29T02:34:32.220Z,93571.41
2022-12-29T02:37:19.147Z,93564.78
2022-12-29T02:40:01.764Z,93567.19
2022-12-29T02:42:44.648Z,93559.03
2022-12-29T02:45:27.442Z,93555.59
2022-12-29T02:48:19.134Z,93546.66
2022-12-29T02:50:58.603Z,93540.03
2022-12-29T02:53:50.333Z,93543.50
2022-12-29T02:56:17.031Z,93545.81
2022-12-29T02:58:45.130Z,93543.50
2022-12-29T03:01:20.915Z,93550.44
2022-12-29T03:03:59.824Z,93547.31
2022-12-29T03:06:32.635Z,93545.69
2022-12-29T03:09:35.925Z,93544.53
2022-12-29T03:12:20.171Z,93543.03
2022-12-29T03:15:11.470Z,93544.59
2022-12-29T03:17:40.960Z,93555.81
2022-12-29T03:20:11.340Z,93553.09
2022-12-29T03:22:43.090Z,93549.59
2022-12-29T03:25:41.583Z,93556.88
2022-12-29T03:28:13.780Z,93555.22
2022-12-29T03:30:42.171Z,93552.53
2022-12-29T03:33:12.687Z,93554.75
2022-12-29T03:35:43.475Z,93557.84
2022-12-29T03:38:40.984Z,93555.19
2022-12-29T03:41:11.888Z,93562.66
2022-12-29T03:43:38.828Z,93559.56
2022-12-29T03:46:05.528Z,93564.56
2022-12-29T03:48:33.870Z,93570.84
2022-12-29T03:51:01.269Z,93558.44
2022-12-29T03:53:28.010Z,93565.09
2022-12-29T03:55:54.597Z,93552.31
2022-12-29T03:58:21.516Z,93543.34
2022-12-29T04:00:48.242Z,93536.81
2022-12-29T04:03:14.948Z,93534.53
2022-12-29T04:05:41.679Z,93546.22
2022-12-29T04:08:08.419Z,93539.25
2022-12-29T04:10:35.276Z,93538.06
2022-12-29T04:13:01.917Z,93534.19
2022-12-29T04:15:28.599Z,93526.41
2022-12-29T04:17:55.289Z,93522.09
2022-12-29T04:20:40.556Z,93538.41
2022-12-29T04:23:07.617Z,93524.44
2022-12-29T04:25:34.985Z,93510.88
2022-12-29T04:28:01.875Z,93516.34
2022-12-29T04:30:28.614Z,93512.09
2022-12-29T04:32:55.642Z,93516.66
2022-12-29T04:35:22.356Z,93527.94
2022-12-29T04:37:49.061Z,93540.03
2022-12-29T04:40:15.712Z,93533.44
2022-12-29T04:42:42.327Z,93546.66
2022-12-29T04:45:09.467Z,93536.16
2022-12-29T04:47:36.110Z,93548.94
2022-12-29T04:50:02.827Z,93551.28
2022-12-29T04:52:29.487Z,93551.28
2022-12-29T04:54:56.187Z,93554.03
2022-12-29T04:57:22.800Z,93561.06
2022-12-29T04:59:49.384Z,93561.47
2022-12-29T05:02:16.918Z,93559.16
2022-12-29T05:04:45.454Z,93565.41
2022-12-29T05:07:12.121Z,93558.41
2022-12-29T05:09:38.817Z,93577.88
2022-12-29T05:12:05.756Z,93570.88
2022-12-29T05:14:32.393Z,93576.31
2022-12-29T05:17:00.013Z,93586.03
2022-12-29T05:19:26.679Z,93592.63
2022-12-29T05:21:53.419Z,93585.59
2022-12-29T05:24:20.157Z,93598.34
2022-12-29T05:26:46.797Z,93601.81
2022-12-29T05:29:13.460Z,93589.66
2022-12-29T05:31:40.281Z,93592.38
2022-12-29T05:34:06.964Z,93578.81
2022-12-29T05:36:37.643Z,93582.38
2022-12-29T05:39:04.931Z,93585.06
2022-12-29T05:41:31.544Z,93582.31
2022-12-29T05:43:58.269Z,93573.44
2022-12-29T05:46:24.962Z,93580.41
2022-12-29T05:48:51.683Z,93565.22
2022-12-29T05:51:18.392Z,93567.59
2022-12-29T05:53:45.017Z,93562.94
2022-12-29T05:56:11.713Z,93562.19
2022-12-29T05:58:38.357Z,93558.28
2022-12-29T06:01:05.188Z,93549.69
2022-12-29T06:03:32.035Z,93558.56
2022-12-29T06:05:58.784Z,93558.09
2022-12-29T06:08:25.388Z,93558.91
2022-12-29T06:10:52.104Z,93559.38
2022-12-29T06:13:18.720Z,93565.97
2022-12-29T06:15:45.374Z,93569.06
2022-12-29T06:20:46.716Z,93560.09
2022-12-29T06:23:14.200Z,93558.53
2022-12-29T06:25:40.925Z,93558.53
2022-12-29T06:28:07.660Z,93557.25
2022-12-29T06:30:34.618Z,93558.16
2022-12-29T06:33:01.255Z,93566.34
2022-12-29T06:35:27.959Z,93570.19
2022-12-29T06:37:54.665Z,93576.41
2022-12-29T06:40:22.681Z,93568.69
2022-12-29T06:42:49.469Z,93573.00
2022-12-29T06:45:16.213Z,93553.53
2022-12-29T06:47:44.063Z,93557.47
2022-12-29T06:50:10.699Z,93557.47
2022-12-29T06:52:37.353Z,93555.53
2022-12-29T06:55:04.442Z,93554.00
2022-12-29T06:57:31.198Z,93554.78
2022-12-29T06:59:57.988Z,93554.78
2022-12-29T07:02:26.419Z,93547.38
2022-12-29T07:04:53.547Z,93552.88
2022-12-29T07:07:21.635Z,93557.13
2022-12-29T07:09:48.431Z,93550.53
2022-12-29T07:12:15.361Z,93553.66
2022-12-29T07:14:43.562Z,93551.72
2022-12-29T07:17:10.734Z,93561.03
2022-12-29T07:19:37.533Z,93559.47
2022-12-29T07:22:04.140Z,93563.38
2022-12-29T07:24:30.863Z,93570.75
2022-12-29T07:26:57.796Z,93573.09
2022-12-29T07:29:25.282Z,93577.00
2022-12-29T07:31:51.994Z,93578.56
2022-12-29T07:34:18.676Z,93587.16
2022-12-29T07:36:45.271Z,93588.72
2022-12-29T07:39:12.651Z,93584.03
2022-12-29T07:41:39.374Z,93586.41
2022-12-29T07:44:06.051Z,93592.25
2022-12-29T07:46:54.480Z,93593.00
2022-12-29T07:49:19.311Z,93591.47
2022-12-29T07:51:45.950Z,93586.78
2022-12-29T07:54:13.602Z,93583.66
2022-12-29T07:56:40.289Z,93580.16
2022-12-29T07:59:06.952Z,93585.22
2022-12-29T08:01:33.772Z,93580.16
2022-12-29T08:04:00.586Z,93579.75
2022-12-29T08:06:27.372Z,93577.41
2022-12-29T08:08:54.059Z,93583.22
2022-12-29T08:11:21.030Z,93581.25
2022-12-29T08:13:47.792Z,93591.75
2022-12-29T08:16:14.438Z,93591.66
2022-12-29T08:18:41.303Z,93598.25
2022-12-29T08:21:08.047Z,93597.47
2022-12-29T08:23:34.771Z,93612.63
2022-12-29T08:26:03.469Z,93609.09
2022-12-29T08:28:30.804Z,93607.88
2022-12-29T08:31:02.537Z,93611.78
2022-12-29T08:33:30.018Z,93614.03
2022-12-29T08:36:02.037Z,93622.97
2022-12-29T08:38:30.036Z,93619.88
2022-12-29T08:41:01.884Z,93627.25
2022-12-29T08:43:29.166Z,93635.06
2022-12-29T08:45:55.866Z,93636.66
2022-12-29T08:48:23.222Z,93639.00
2022-12-29T08:50:51.450Z,93640.16
2022-12-29T08:53:19.573Z,93634.69
2022-12-29T08:56:00.810Z,93637.75
2022-12-29T08:58:31.692Z,93641.19
2022-12-29T09:00:58.801Z,93632.09
2022-12-29T09:03:55.147Z,93635.56
2022-12-29T09:06:13.361Z,93642.91
2022-12-29T09:08:40.054Z,93638.19
2022-12-29T09:11:13.433Z,93630.25
2022-12-29T09:13:40.415Z,93630.53
2022-12-29T09:16:07.855Z,93640.63
2022-12-29T09:18:34.698Z,93638.28
2022-12-29T09:21:03.868Z,93635.19
2022-12-29T09:23:30.692Z,93646.91
2022-12-29T09:25:57.616Z,93639.50
2022-12-29T09:28:25.066Z,93631.69
2022-12-29T09:30:52.253Z,93644.59
2022-12-29T09:33:19.225Z,93635.59
2022-12-29T09:35:51.063Z,93641.84
2022-12-29T09:38:18.117Z,93635.91
2022-12-29T09:40:50.207Z,93641.94
2022-12-29T09:43:41.823Z,93632.44
2022-12-29T09:46:27.610Z,93635.13
2022-12-29T09:49:03.308Z,93637.97
2022-12-29T09:51:30.118Z,93628.97
2022-12-29T09:54:01.327Z,93634.28
2022-12-29T09:56:28.859Z,93634.59
2022-12-29T09:59:02.007Z,93630.50
2022-12-29T10:01:38.106Z,93631.13
2022-12-29T10:04:06.229Z,93626.97
2022-12-29T10:07:29.039Z,93628.16
2022-12-29T10:10:03.645Z,93625.41
2022-12-29T10:12:39.550Z,93624.91
2022-12-29T10:15:27.103Z,93625.56
2022-12-29T10:18:31.618Z,93614.13
2022-12-29T10:21:09.103Z,93617.38
2022-12-29T10:23:48.746Z,93616.81
2022-12-29T10:26:19.343Z,93614.06
2022-12-29T10:28:51.504Z,93614.19
2022-12-29T10:31:24.031Z,93607.50
2022-12-29T10:34:04.619Z,93609.78
2022-12-29T10:36:42.798Z,93606.66
2022-12-29T10:39:15.474Z,93608.31
2022-12-29T10:42:04.612Z,93611.06
2022-12-29T10:44:32.742Z,93608.81
2022-12-29T10:47:03.492Z,93610.78
2022-12-29T10:49:33.035Z,93614.19
2022-12-29T10:52:03.327Z,93623.44
2022-12-29T10:54:52.504Z,93608.75
2022-12-29T10:57:28.994Z,93611.06
2022-12-29T10:59:55.966Z,93608.06
2022-12-29T11:02:28.634Z,93603.47
2022-12-29T11:05:20.694Z,93601.44
2022-12-29T11:07:55.285Z,93606.84
2022-12-29T11:10:40.724Z,93597.06
2022-12-29T11:13:19.153Z,93593.84
2022-12-29T11:15:45.772Z,93588.25
2022-12-29T11:18:39.233Z,93590.81
2022-12-29T11:21:24.757Z,93582.44
2022-12-29T11:24:06.384Z,93583.78
2022-12-29T11:26:35.018Z,93584.66
2022-12-29T11:29:24.376Z,93586.59
2022-12-29T11:31:55.197Z,93591.44
2022-12-29T11:34:26.844Z,93581.72
2022-12-29T11:37:03.223Z,93577.81
2022-12-29T11:39:46.629Z,93584.06
2022-12-29T11:42:17.443Z,93577.03
2022-12-29T11:44:49.823Z,93576.16
2022-12-29T11:47:30.597Z,93575.31
2022-12-29T11:50:04.129Z,93574.66
2022-12-29T11:52:36.100Z,93566.03
2022-12-29T11:55:05.875Z,93560.41
2022-12-29T11:57:35.962Z,93558.28
2022-12-29T12:00:15.537Z,93566.97
2022-12-29T12:03:06.977Z,93565.06
2022-12-29T12:05:45.926Z,93569.81
2022-12-29T12:08:38.485Z,93566.72
2022-12-29T12:11:16.371Z,93557.72
2022-12-29T12:13:58.083Z,93554.53
2022-12-29T12:16:42.488Z,93542.84
2022-12-29T12:19:33.957Z,93549.50
2022-12-29T12:22:11.754Z,93553.59
2022-12-29T12:24:56.604Z,93555.34
2022-12-29T12:27:30.145Z,93555.41
2022-12-29T12:29:59.809Z,93558.19
2022-12-29T12:32:35.552Z,93552.72
2022-12-29T12:35:02.800Z,93553.59
2022-12-29T12:37:50.815Z,93550.28
2022-12-29T12:40:59.077Z,93542.91
2022-12-29T12:43:38.337Z,93549.03
2022-12-29T12:46:08.433Z,93549.09
2022-12-29T12:48:50.183Z,93537.25
2022-12-29T12:51:19.490Z,93547.44
2022-12-29T12:54:17.208Z,93541.25
2022-12-29T12:56:52.956Z,93535.69
2022-12-29T12:59:32.216Z,93535.91
2022-12-29T13:02:12.369Z,93527.91
2022-12-29T13:05:15.762Z,93528.97
2022-12-29T13:08:27.430Z,93529.09
2022-12-29T13:11:03.371Z,93523.81
2022-12-29T13:13:36.034Z,93519.41
2022-12-29T13:16:21.674Z,93513.56
2022-12-29T13:19:04.852Z,93509.81
2022-12-29T13:21:38.359Z,93521.00
2022-12-29T13:24:33.659Z,93508.44
2022-12-29T13:27:21.889Z,93507.44
2022-12-29T13:30:22.382Z,93511.69
2022-12-29T13:32:48.947Z,93501.34
2022-12-29T13:35:32.077Z,93505.56
2022-12-29T13:38:10.213Z,93506.78
2022-12-29T13:40:47.636Z,93515.81
2022-12-29T13:43:16.857Z,93515.00
2022-12-29T13:45:46.195Z,93511.91
2022-12-29T13:48:12.731Z,93507.59
2022-12-29T13:50:41.241Z,93503.25
2022-12-29T13:53:23.364Z,93505.50
2022-12-29T13:55:59.458Z,93491.97
2022-12-29T13:58:33.717Z,93486.13
2022-12-29T14:01:23.092Z,93493.94
2022-12-29T14:03:53.387Z,93505.88
2022-12-29T14:06:29.297Z,93507.13
2022-12-29T14:08:59.675Z,93499.88
2022-12-29T14:11:38.679Z,93487.97
2022-12-29T14:14:15.185Z,93506.38
2022-12-29T14:16:44.052Z,93507.19
2022-12-29T14:19:13.643Z,93511.13
2022-12-29T14:21:41.297Z,93532.75
2022-12-29T14:24:29.679Z,93512.47
2022-12-29T14:26:56.384Z,93509.38
2022-12-29T14:29:25.688Z,93519.63
2022-12-29T14:31:53.754Z,93510.78
2022-12-29T14:34:23.163Z,93516.97
2022-12-29T14:36:52.853Z,93526.78
2022-12-29T14:39:46.036Z,93517.50
2022-12-29T14:42:18.487Z,93514.47
2022-12-29T14:44:52.760Z,93505.88
2022-12-29T14:47:26.392Z,93512.97
2022-12-29T14:49:53.589Z,93511.47
2022-12-29T14:52:25.854Z,93522.00
2022-12-29T14:54:55.576Z,93523.56
2022-12-29T14:57:43.984Z,93530.31
2022-12-29T15:00:41.428Z,93533.81
2022-12-29T15:03:18.267Z,93528.31
2022-12-29T15:05:49.614Z,93527.97
2022-12-29T15:08:23.327Z,93524.88
2022-12-29T15:11:01.694Z,93532.06
2022-12-29T15:13:41.036Z,93524.31
2022-12-29T15:16:24.199Z,93531.38
2022-12-29T15:18:51.063Z,93530.25
2022-12-29T15:21:18.850Z,93530.25
2022-12-29T15:23:46.449Z,93540.44
2022-12-29T15:26:21.944Z,93534.97
2022-12-29T15:28:49.499Z,93540.56
2022-12-29T15:31:30.013Z,93536.72
2022-12-29T15:34:12.520Z,93524.38
2022-12-29T15:36:41.222Z,93534.97
2022-12-29T15:39:31.697Z,93533.78
2022-12-29T15:42:06.996Z,93540.03
2022-12-29T15:44:39.287Z,93543.06
2022-12-29T15:47:12.680Z,93549.69
2022-12-29T15:49:39.854Z,93543.41
2022-12-29T15:52:10.355Z,93533.66
2022-12-29T15:54:38.756Z,93539.50
2022-12-29T15:57:21.656Z,93539.94
2022-12-29T15:59:49.136Z,93549.34
2022-12-29T16:02:16.085Z,93552.78
2022-12-29T16:05:09.200Z,93557.47
2022-12-29T16:07:41.244Z,93568.31
2022-12-29T16:10:41.206Z,93563.06
2022-12-29T16:13:23.707Z,93563.97
2022-12-29T16:15:55.862Z,93553.88
2022-12-29T16:18:29.680Z,93552.81
2022-12-29T16:20:57.510Z,93550.94
2022-12-29T16:23:27.881Z,93557.22
2022-12-29T16:25:58.458Z,93553.00
2022-12-29T16:28:33.077Z,93562.41
2022-12-29T16:31:04.626Z,93548.41
2022-12-29T16:33:45.335Z,93547.28
2022-12-29T16:36:30.826Z,93552.38
2022-12-29T16:39:25.009Z,93549.63
2022-12-29T16:41:52.209Z,93553.91
2022-12-29T16:44:21.215Z,93557.38
2022-12-29T16:47:12.287Z,93558.94
2022-12-29T16:49:43.523Z,93557.75
2022-12-29T16:52:18.846Z,93562.34
2022-12-29T16:54:52.828Z,93561.56
2022-12-29T16:57:37.614Z,93570.91
2022-12-29T17:00:19.035Z,93570.13
2022-12-29T17:02:47.043Z,93561.19
2022-12-29T17:05:15.301Z,93563.50
2022-12-29T17:07:42.007Z,93567.78
2022-12-29T17:10:09.089Z,93568.56
2022-12-29T17:12:37.333Z,93568.88
2022-12-29T17:15:13.908Z,93581.78
2022-12-29T17:17:46.681Z,93572.03
2022-12-29T17:20:19.432Z,93568.19
2022-12-29T17:22:46.766Z,93575.63
2022-12-29T17:25:15.474Z,93572.47
2022-12-29T17:27:49.118Z,93573.22
2022-12-29T17:30:21.982Z,93569.28
2022-12-29T17:32:59.731Z,93565.88
2022-12-29T17:35:27.015Z,93571.34
2022-12-29T17:37:54.009Z,93574.13
2022-12-29T17:40:27.984Z,93576.81
2022-12-29T17:42:57.044Z,93589.72
2022-12-29T17:45:29.478Z,93583.19
2022-12-29T17:47:57.235Z,93575.84
2022-12-29T17:50:26.311Z,93593.00
2022-12-29T17:53:00.819Z,93598.91
2022-12-29T17:55:36.702Z,93595.34
2022-12-29T17:58:17.137Z,93603.53
2022-12-29T18:00:44.175Z,93591.09
2022-12-29T18:03:26.817Z,93605.13
2022-12-29T18:05:53.920Z,93606.72
2022-12-29T18:08:20.990Z,93604.00
2022-12-29T18:10:48.221Z,93605.91
2022-12-29T18:13:31.839Z,93597.41
2022-12-29T18:16:02.685Z,93615.31
2022-12-29T18:18:29.390Z,93603.25
2022-12-29T18:21:00.044Z,93604.06
2022-12-29T18:23:29.568Z,93592.03
2022-12-29T18:26:00.442Z,93591.25
2022-12-29T18:28:28.534Z,93588.56
2022-12-29T18:30:57.772Z,93591.28
2022-12-29T18:33:26.678Z,93583.53
2022-12-29T18:35:59.801Z,93588.63
2022-12-29T18:38:27.715Z,93586.66
2022-12-29T18:40:54.696Z,93587.91
2022-12-29T18:43:22.567Z,93591.00
2022-12-29T18:45:49.918Z,93590.59
2022-12-29T18:48:18.786Z,93599.13
2022-12-29T18:50:46.657Z,93597.97
2022-12-29T18:53:22.217Z,93603.84
2022-12-29T18:55:49.166Z,93604.63
2022-12-29T18:58:15.937Z,93607.75
2022-12-29T19:00:43.066Z,93608.19
2022-12-29T19:03:14.661Z,93603.91
2022-12-29T19:05:43.118Z,93598.44
2022-12-29T19:08:10.994Z,93598.41
2022-12-29T19:10:39.557Z,93599.19
2022-12-29T19:13:06.447Z,93594.16
2022-12-29T19:15:37.808Z,93597.28
2022-12-29T19:18:42.512Z,93593.41
2022-12-29T19:20:55.044Z,93591.06
2022-12-29T19:23:23.784Z,93589.47
2022-12-29T19:25:52.358Z,93590.63
2022-12-29T19:28:27.097Z,93591.38
2022-12-29T19:30:57.397Z,93594.09
2022-12-29T19:33:24.532Z,93591.00
2022-12-29T19:35:51.909Z,93597.59
2022-12-29T19:38:19.573Z,93595.69
2022-12-29T19:40:51.218Z,93596.06
2022-12-29T19:43:18.835Z,93592.16
2022-12-29T19:45:45.912Z,93594.47
2022-12-29T19:48:18.097Z,93594.09
2022-12-29T19:50:45.713Z,93589.41
2022-12-29T19:53:13.415Z,93598.78
2022-12-29T19:55:47.099Z,93594.09
2022-12-29T19:58:14.737Z,93596.03
2022-12-29T20:00:43.488Z,93594.47
2022-12-29T20:03:10.733Z,93593.31
2022-12-29T20:05:38.455Z,93594.09
2022-12-29T20:08:05.354Z,93596.03
2022-12-29T20:10:32.007Z,93596.81
2022-12-29T20:12:58.665Z,93598.78
2022-12-29T20:15:25.467Z,93600.69
2022-12-29T20:20:38.773Z,93594.91
2022-12-29T20:23:05.483Z,93599.56
2022-12-29T20:25:44.914Z,93605.00
2022-12-29T20:28:12.934Z,93602.66
2022-12-29T20:30:39.658Z,93608.50
2022-12-29T20:33:08.528Z,93602.28
2022-12-29T20:35:36.565Z,93610.09
2022-12-29T20:38:04.142Z,93605.81
2022-12-29T20:40:31.596Z,93605.06
2022-12-29T20:42:58.224Z,93617.50
2022-12-29T20:45:25.189Z,93615.16
2022-12-29T20:47:52.014Z,93613.25
2022-12-29T20:50:18.616Z,93620.63
2022-12-29T20:52:45.329Z,93615.59
2022-12-29T20:55:12.051Z,93624.16
2022-12-29T20:58:14.138Z,93627.66
2022-12-29T21:00:25.864Z,93621.84
2022-12-29T21:02:53.017Z,93629.63
2022-12-29T21:05:24.451Z,93631.97
2022-12-29T21:07:53.367Z,93637.47
2022-12-29T21:10:20.776Z,93632.81
2022-12-29T21:12:48.461Z,93635.53
2022-12-29T21:15:15.714Z,93637.06
2022-12-29T21:17:44.060Z,93639.41
2022-12-29T21:20:21.562Z,93647.97
2022-12-29T21:22:48.484Z,93641.38
2022-12-29T21:25:15.552Z,93645.31
2022-12-29T21:27:44.074Z,93645.31
2022-12-29T21:30:11.504Z,93655.81
2022-12-29T21:32:38.289Z,93660.91
2022-12-29T21:35:05.365Z,93666.34
2022-12-29T21:37:32.082Z,93664.00
2022-12-29T21:39:58.718Z,93670.22
2022-12-29T21:42:27.593Z,93661.28
2022-12-29T21:45:19.902Z,93676.47
2022-12-29T21:48:06.181Z,93669.88
2022-12-29T21:50:32.848Z,93669.09
2022-12-29T21:52:59.543Z,93673.78
2022-12-29T21:55:26.240Z,93669.50
2022-12-29T21:58:11.556Z,93694.41
2022-12-29T22:00:56.830Z,93687.81
2022-12-29T22:03:42.286Z,93690.53
2022-12-29T22:06:30.674Z,93692.13
2022-12-29T22:09:15.943Z,93709.22
2022-12-29T22:12:00.848Z,93712.72
2022-12-29T22:14:27.541Z,93713.94
2022-12-29T22:16:54.175Z,93719.34
2022-12-29T22:19:20.910Z,93741.13
2022-12-29T22:21:47.617Z,93750.06
2022-12-29T22:24:14.319Z,93758.19
2022-12-29T22:26:41.077Z,93779.16
2022-12-29T22:29:07.895Z,93769.06
2022-12-29T22:31:34.844Z,93777.84
2022-12-29T22:34:03.130Z,93781.69
2022-12-29T22:36:30.878Z,93787.75
2022-12-29T22:38:57.543Z,93792.31
2022-12-29T22:41:24.221Z,93796.78
2022-12-29T22:43:50.960Z,93804.03
2022-12-29T22:46:17.829Z,93801.31
2022-12-29T22:48:44.591Z,93805.03
2022-12-29T22:51:11.354Z,93791.22
2022-12-29T22:53:38.100Z,93800.38
2022-12-29T22:56:10.618Z,93796.84
2022-12-29T22:58:45.736Z,93800.41
2022-12-29T23:01:15.902Z,93804.13
2022-12-29T23:03:43.852Z,93799.16
2022-12-29T23:06:16.306Z,93798.00
2022-12-29T23:08:44.064Z,93793.63
2022-12-29T23:11:12.533Z,93787.75
2022-12-29T23:13:41.014Z,93789.72
2022-12-29T23:16:07.988Z,93787.31
2022-12-29T23:18:34.844Z,93796.75
2022-12-29T23:21:01.799Z,93793.72
2022-12-29T23:23:49.398Z,93792.94
2022-12-29T23:26:22.987Z,93791.06
2022-12-29T23:28:53.534Z,93801.53
2022-12-29T23:31:25.800Z,93794.16
2022-12-29T23:33:52.848Z,93786.03
2022-12-29T23:36:19.691Z,93785.16
2022-12-29T23:38:46.337Z,93795.31
2022-12-29T23:41:13.257Z,93794.53
2022-12-29T23:43:40.140Z,93797.72
2022-12-29T23:46:09.241Z,93803.03
2022-12-29T23:48:36.624Z,93791.44
2022-12-29T23:51:05.511Z,93807.69
2022-12-29T23:53:33.615Z,93803.41
2022-12-29T23:56:00.581Z,93801.47
2022-12-29T23:58:29.974Z,93804.63
